createdAt,value
2022-11-30T00:00:09.657Z,71.75
2022-11-30T00:01:09.676Z,71.84
2022-11-30T00:02:09.784Z,71.84
2022-11-30T00:03:09.802Z,71.84
2022-11-30T00:04:09.639Z,71.84
2022-11-30T00:05:09.635Z,71.88
2022-11-30T00:06:09.640Z,71.66
2022-11-30T00:07:09.626Z,71.84
2022-11-30T00:08:09.633Z,71.84
2022-11-30T00:09:09.607Z,71.66
2022-11-30T00:10:09.630Z,71.84
2022-11-30T00:11:09.617Z,71.56
2022-11-30T00:12:09.603Z,71.56
2022-11-30T00:13:09.609Z,71.66
2022-11-30T00:14:09.595Z,71.84
2022-11-30T00:15:09.618Z,71.84
2022-11-30T00:16:09.592Z,71.75
2022-11-30T00:17:09.593Z,71.66
2022-11-30T00:18:09.586Z,71.84
2022-11-30T00:19:09.598Z,71.84
2022-11-30T00:20:09.586Z,71.88
2022-11-30T00:21:09.564Z,71.56
2022-11-30T00:22:09.579Z,71.84
2022-11-30T00:23:09.573Z,71.66
2022-11-30T00:24:09.578Z,71.75
2022-11-30T00:25:09.569Z,71.84
2022-11-30T00:26:09.568Z,71.94
2022-11-30T00:27:09.560Z,71.84
2022-11-30T00:28:09.545Z,71.75
2022-11-30T00:29:09.539Z,71.56
2022-11-30T00:30:09.545Z,71.84
2022-11-30T00:31:09.635Z,71.75
2022-11-30T00:32:09.527Z,71.75
2022-11-30T00:33:09.519Z,71.75
2022-11-30T00:34:09.535Z,71.84
2022-11-30T00:35:09.535Z,71.84
2022-11-30T00:36:09.524Z,71.66
2022-11-30T00:37:09.518Z,71.66
2022-11-30T00:38:09.503Z,71.84
2022-11-30T00:39:09.497Z,71.75
2022-11-30T00:40:09.497Z,71.75
2022-11-30T00:41:09.491Z,71.88
2022-11-30T00:42:09.490Z,71.84
2022-11-30T00:43:09.486Z,71.75
2022-11-30T00:44:09.494Z,71.75
2022-11-30T00:45:09.474Z,71.84
2022-11-30T00:46:09.610Z,71.84
2022-11-30T00:47:09.484Z,71.66
2022-11-30T00:48:09.482Z,71.84
2022-11-30T00:49:09.470Z,71.84
2022-11-30T00:50:09.477Z,71.75
2022-11-30T00:51:09.472Z,71.84
2022-11-30T00:52:09.468Z,71.84
2022-11-30T00:53:09.449Z,71.75
2022-11-30T00:54:09.448Z,71.66
2022-11-30T00:55:09.454Z,71.84
2022-11-30T00:56:09.448Z,71.66
2022-11-30T00:57:09.442Z,71.84
2022-11-30T00:58:09.443Z,71.84
2022-11-30T00:59:09.437Z,71.75
2022-11-30T01:00:09.422Z,71.84
2022-11-30T01:01:09.490Z,71.75
2022-11-30T01:02:09.490Z,71.66
2022-11-30T01:03:09.421Z,71.75
2022-11-30T01:04:09.406Z,71.75
2022-11-30T01:05:09.396Z,71.84
2022-11-30T01:06:09.401Z,71.84
2022-11-30T01:07:09.415Z,71.84
2022-11-30T01:08:09.500Z,71.84
2022-11-30T01:09:09.395Z,71.66
2022-11-30T01:10:09.408Z,71.84
2022-11-30T01:11:09.396Z,71.75
2022-11-30T01:12:09.393Z,71.84
2022-11-30T01:13:09.368Z,71.84
2022-11-30T01:14:09.383Z,71.84
2022-11-30T01:15:09.362Z,71.56
2022-11-30T01:16:09.463Z,71.75
2022-11-30T01:17:09.371Z,71.84
2022-11-30T01:18:09.359Z,71.75
2022-11-30T01:19:09.357Z,71.84
2022-11-30T01:20:09.345Z,71.66
2022-11-30T01:21:09.348Z,71.66
2022-11-30T01:22:09.339Z,71.75
2022-11-30T01:23:09.350Z,71.56
2022-11-30T01:24:09.335Z,71.84
2022-11-30T01:25:09.328Z,71.75
2022-11-30T01:26:09.324Z,71.56
2022-11-30T01:27:09.330Z,71.84
2022-11-30T01:28:09.337Z,71.84
2022-11-30T01:29:09.318Z,71.56
2022-11-30T01:30:09.320Z,71.75
2022-11-30T01:31:09.346Z,71.84
2022-11-30T01:32:09.319Z,71.56
2022-11-30T01:33:09.296Z,71.84
2022-11-30T01:34:09.312Z,71.75
2022-11-30T01:35:09.306Z,71.94
2022-11-30T01:36:09.279Z,71.75
2022-11-30T01:37:09.298Z,71.75
2022-11-30T01:38:09.272Z,71.75
2022-11-30T01:39:09.308Z,71.66
2022-11-30T01:40:09.274Z,71.75
2022-11-30T01:41:09.274Z,71.84
2022-11-30T01:42:09.270Z,71.84
2022-11-30T01:43:09.276Z,71.75
2022-11-30T01:44:09.255Z,71.84
2022-11-30T01:45:09.267Z,71.75
2022-11-30T01:46:09.282Z,71.75
2022-11-30T01:47:09.245Z,71.84
2022-11-30T01:48:09.250Z,71.75
2022-11-30T01:49:09.239Z,71.75
2022-11-30T01:50:09.235Z,71.75
2022-11-30T01:51:09.230Z,71.75
2022-11-30T01:52:09.220Z,71.66
2022-11-30T01:53:09.222Z,71.56
2022-11-30T01:54:09.216Z,71.84
2022-11-30T01:55:09.233Z,71.94
2022-11-30T01:56:09.204Z,71.75
2022-11-30T01:57:09.204Z,71.84
2022-11-30T01:58:09.208Z,71.75
2022-11-30T01:59:09.214Z,71.84
2022-11-30T02:00:09.214Z,71.75
2022-11-30T02:01:09.268Z,71.75
2022-11-30T02:02:09.316Z,71.84
2022-11-30T02:03:09.245Z,71.75
2022-11-30T02:04:09.224Z,71.84
2022-11-30T02:05:09.186Z,71.84
2022-11-30T02:06:09.180Z,71.84
2022-11-30T02:07:09.267Z,71.56
2022-11-30T02:08:09.303Z,71.94
2022-11-30T02:09:09.178Z,71.84
2022-11-30T02:10:09.165Z,71.75
2022-11-30T02:11:09.167Z,71.84
2022-11-30T02:12:09.157Z,71.84
2022-11-30T02:13:09.141Z,71.84
2022-11-30T02:14:09.142Z,71.94
2022-11-30T02:15:09.151Z,71.84
2022-11-30T02:16:09.225Z,71.84
2022-11-30T02:17:09.140Z,71.94
2022-11-30T02:18:09.138Z,71.75
2022-11-30T02:19:09.135Z,71.84
2022-11-30T02:20:09.125Z,71.75
2022-11-30T02:21:09.127Z,71.75
2022-11-30T02:22:09.105Z,70.98
2022-11-30T02:23:09.103Z,71.56
2022-11-30T02:24:09.111Z,71.94
2022-11-30T02:25:09.110Z,71.56
2022-11-30T02:26:09.091Z,71.94
2022-11-30T02:27:09.133Z,71.75
2022-11-30T02:28:09.087Z,71.75
2022-11-30T02:29:09.086Z,71.94
2022-11-30T02:30:09.077Z,71.94
2022-11-30T02:31:09.090Z,71.27
2022-11-30T02:32:09.079Z,71.84
2022-11-30T02:33:09.087Z,71.46
2022-11-30T02:34:09.060Z,71.37
2022-11-30T02:35:09.074Z,71.08
2022-11-30T02:36:09.057Z,72.03
2022-11-30T02:37:09.051Z,71.27
2022-11-30T02:38:09.059Z,71.75
2022-11-30T02:39:09.060Z,71.56
2022-11-30T02:40:09.056Z,71.94
2022-11-30T02:41:09.049Z,71.27
2022-11-30T02:42:09.032Z,71.27
2022-11-30T02:43:09.058Z,71.84
2022-11-30T02:44:09.033Z,71.27
2022-11-30T02:45:09.033Z,71.27
2022-11-30T02:46:09.042Z,71.56
2022-11-30T02:47:09.031Z,71.46
2022-11-30T02:48:09.007Z,71.37
2022-11-30T02:49:09.032Z,71.27
2022-11-30T02:50:09.012Z,71.27
2022-11-30T02:51:09.001Z,71.56
2022-11-30T02:52:09.002Z,71.27
2022-11-30T02:53:09.008Z,71.27
2022-11-30T02:54:08.985Z,70.98
2022-11-30T02:55:08.988Z,71.27
2022-11-30T02:56:08.977Z,71.27
2022-11-30T02:57:08.987Z,71.27
2022-11-30T02:58:08.983Z,71.37
2022-11-30T02:59:08.998Z,71.27
2022-11-30T03:00:08.960Z,71.37
2022-11-30T03:01:09.054Z,71.27
2022-11-30T03:02:08.966Z,70.89
2022-11-30T03:03:09.029Z,71.75
2022-11-30T03:04:08.961Z,71.27
2022-11-30T03:05:08.953Z,71.56
2022-11-30T03:06:08.947Z,71.27
2022-11-30T03:07:08.941Z,71.27
2022-11-30T03:08:08.930Z,71.27
2022-11-30T03:09:08.933Z,71.27
2022-11-30T03:10:08.937Z,71.37
2022-11-30T03:11:09.002Z,71.37
2022-11-30T03:12:08.911Z,71.37
2022-11-30T03:13:08.918Z,71.37
2022-11-30T03:14:08.904Z,71.37
2022-11-30T03:15:08.940Z,71.17
2022-11-30T03:16:08.964Z,71.17
2022-11-30T03:17:08.901Z,71.27
2022-11-30T03:18:08.901Z,71.37
2022-11-30T03:19:08.893Z,71.27
2022-11-30T03:20:08.897Z,71.27
2022-11-30T03:21:08.898Z,71.27
2022-11-30T03:22:08.895Z,71.27
2022-11-30T03:23:08.893Z,71.27
2022-11-30T03:24:08.883Z,71.27
2022-11-30T03:25:08.867Z,71.27
2022-11-30T03:26:08.860Z,71.37
2022-11-30T03:27:08.878Z,71.37
2022-11-30T03:28:08.862Z,71.27
2022-11-30T03:29:08.866Z,71.27
2022-11-30T03:30:08.853Z,71.37
2022-11-30T03:31:08.918Z,71.37
2022-11-30T03:32:08.844Z,71.17
2022-11-30T03:33:08.839Z,71.17
2022-11-30T03:34:08.842Z,71.17
2022-11-30T03:35:08.844Z,71.17
2022-11-30T03:36:08.836Z,71.37
2022-11-30T03:37:08.823Z,71.17
2022-11-30T03:38:08.817Z,71.27
2022-11-30T03:39:08.828Z,71.27
2022-11-30T03:40:08.808Z,71.17
2022-11-30T03:41:08.825Z,71.17
2022-11-30T03:42:08.829Z,71.27
2022-11-30T03:43:08.799Z,71.37
2022-11-30T03:44:08.804Z,71.17
2022-11-30T03:45:08.804Z,71.08
2022-11-30T03:46:08.871Z,71.17
2022-11-30T03:47:08.828Z,71.17
2022-11-30T03:48:08.791Z,71.27
2022-11-30T03:49:08.778Z,71.17
2022-11-30T03:50:08.786Z,71.37
2022-11-30T03:51:08.793Z,71.17
2022-11-30T03:52:08.774Z,71.27
2022-11-30T03:53:08.772Z,71.27
2022-11-30T03:54:08.766Z,71.27
2022-11-30T03:55:08.748Z,71.27
2022-11-30T03:56:08.747Z,71.08
2022-11-30T03:57:08.752Z,71.27
2022-11-30T03:58:08.746Z,71.17
2022-11-30T03:59:08.741Z,71.17
2022-11-30T04:00:08.755Z,71.08
2022-11-30T04:01:08.737Z,71.17
2022-11-30T04:02:08.735Z,71.27
2022-11-30T04:03:08.797Z,71.27
2022-11-30T04:04:08.713Z,71.94
2022-11-30T04:05:08.730Z,71.17
2022-11-30T04:06:08.717Z,71.27
2022-11-30T04:07:08.713Z,71.27
2022-11-30T04:08:08.708Z,71.27
2022-11-30T04:09:08.714Z,71.37
2022-11-30T04:10:08.982Z,71.46
2022-11-30T04:11:08.721Z,71.37
2022-11-30T04:12:08.693Z,71.27
2022-11-30T04:13:08.691Z,71.27
2022-11-30T04:14:08.694Z,71.17
2022-11-30T04:15:08.689Z,71.27
2022-11-30T04:16:08.755Z,71.37
2022-11-30T04:17:08.668Z,71.27
2022-11-30T04:18:08.656Z,71.37
2022-11-30T04:19:08.677Z,71.37
2022-11-30T04:20:08.661Z,71.27
2022-11-30T04:21:08.661Z,71.37
2022-11-30T04:22:08.652Z,71.46
2022-11-30T04:23:08.644Z,71.37
2022-11-30T04:24:08.661Z,71.27
2022-11-30T04:25:08.645Z,71.27
2022-11-30T04:26:08.642Z,71.37
2022-11-30T04:27:08.631Z,71.27
2022-11-30T04:28:08.619Z,71.37
2022-11-30T04:29:08.629Z,71.46
2022-11-30T04:30:08.621Z,71.27
2022-11-30T04:31:08.645Z,71.27
2022-11-30T04:32:08.603Z,71.17
2022-11-30T04:33:08.609Z,71.56
2022-11-30T04:34:08.597Z,71.27
2022-11-30T04:35:08.614Z,71.56
2022-11-30T04:36:08.594Z,71.46
2022-11-30T04:37:08.606Z,71.37
2022-11-30T04:38:08.594Z,71.27
2022-11-30T04:39:08.610Z,71.37
2022-11-30T04:40:08.585Z,71.56
2022-11-30T04:41:08.582Z,71.37
2022-11-30T04:42:08.577Z,71.27
2022-11-30T04:43:08.562Z,71.46
2022-11-30T04:44:08.567Z,71.37
2022-11-30T04:45:08.570Z,71.56
2022-11-30T04:46:08.634Z,71.37
2022-11-30T04:47:08.557Z,71.46
2022-11-30T04:48:08.540Z,71.46
2022-11-30T04:49:08.552Z,71.27
2022-11-30T04:50:08.537Z,71.75
2022-11-30T04:51:08.549Z,71.46
2022-11-30T04:52:08.530Z,71.46
2022-11-30T04:53:08.530Z,71.46
2022-11-30T04:54:08.517Z,71.37
2022-11-30T04:55:08.530Z,71.46
2022-11-30T04:56:08.516Z,71.46
2022-11-30T04:57:08.505Z,71.37
2022-11-30T04:58:08.502Z,71.37
2022-11-30T04:59:08.499Z,71.56
2022-11-30T05:00:08.490Z,71.56
2022-11-30T05:01:08.512Z,71.27
2022-11-30T05:02:08.553Z,71.56
2022-11-30T05:03:08.505Z,71.37
2022-11-30T05:04:08.536Z,71.56
2022-11-30T05:05:08.495Z,71.27
2022-11-30T05:06:08.480Z,71.37
2022-11-30T05:07:08.493Z,71.56
2022-11-30T05:08:08.459Z,71.56
2022-11-30T05:09:08.458Z,71.27
2022-11-30T05:10:08.471Z,71.27
2022-11-30T05:11:08.463Z,71.27
2022-11-30T05:12:08.445Z,71.27
2022-11-30T05:13:08.451Z,71.75
2022-11-30T05:14:08.465Z,71.56
2022-11-30T05:15:08.451Z,71.56
2022-11-30T05:16:08.505Z,71.46
2022-11-30T05:17:08.431Z,71.56
2022-11-30T05:18:08.433Z,71.37
2022-11-30T05:19:08.436Z,71.66
2022-11-30T05:20:08.416Z,71.56
2022-11-30T05:21:08.417Z,71.37
2022-11-30T05:22:08.419Z,71.37
2022-11-30T05:23:08.454Z,71.27
2022-11-30T05:24:08.432Z,71.37
2022-11-30T05:25:08.411Z,71.27
2022-11-30T05:26:08.389Z,71.56
2022-11-30T05:27:14.298Z,71.27
2022-11-30T05:28:08.395Z,71.56
2022-11-30T05:29:08.397Z,71.37
2022-11-30T05:30:08.391Z,71.37
2022-11-30T05:31:08.435Z,71.27
2022-11-30T05:32:08.384Z,71.37
2022-11-30T05:33:08.388Z,71.37
2022-11-30T05:34:08.373Z,71.27
2022-11-30T05:35:08.383Z,71.37
2022-11-30T05:36:10.941Z,71.46
2022-11-30T05:37:08.361Z,71.27
2022-11-30T05:38:08.348Z,71.46
2022-11-30T05:39:08.377Z,71.37
2022-11-30T05:40:08.352Z,71.37
2022-11-30T05:41:08.342Z,71.37
2022-11-30T05:42:08.330Z,71.56
2022-11-30T05:43:08.330Z,71.46
2022-11-30T05:44:08.320Z,71.27
2022-11-30T05:45:08.317Z,71.27
2022-11-30T05:46:08.310Z,71.37
2022-11-30T05:47:08.368Z,71.27
2022-11-30T05:48:08.319Z,71.27
2022-11-30T05:49:08.313Z,71.27
2022-11-30T05:50:08.306Z,71.27
2022-11-30T05:51:08.314Z,71.27
2022-11-30T05:52:08.303Z,71.27
2022-11-30T05:53:08.283Z,71.17
2022-11-30T05:54:08.298Z,71.17
2022-11-30T05:55:08.297Z,71.27
2022-11-30T05:56:08.278Z,71.08
2022-11-30T05:57:08.265Z,71.08
2022-11-30T05:58:08.271Z,71.08
2022-11-30T05:59:08.274Z,71.27
2022-11-30T06:00:08.278Z,71.08
2022-11-30T06:01:08.255Z,71.17
2022-11-30T06:02:08.421Z,71.27
2022-11-30T06:03:08.374Z,71.08
2022-11-30T06:04:08.983Z,71.17
2022-11-30T06:05:08.237Z,71.17
2022-11-30T06:06:08.234Z,72.03
2022-11-30T06:07:08.227Z,71.27
2022-11-30T06:08:08.253Z,71.17
2022-11-30T06:09:08.240Z,71.37
2022-11-30T06:10:08.221Z,71.17
2022-11-30T06:11:08.256Z,71.17
2022-11-30T06:12:08.225Z,71.27
2022-11-30T06:13:08.226Z,71.37
2022-11-30T06:14:08.203Z,71.37
2022-11-30T06:15:08.210Z,71.37
2022-11-30T06:16:08.287Z,71.37
2022-11-30T06:17:08.391Z,71.37
2022-11-30T06:18:08.194Z,71.17
2022-11-30T06:19:08.186Z,71.27
2022-11-30T06:20:08.184Z,71.27
2022-11-30T06:21:08.175Z,71.56
2022-11-30T06:22:08.189Z,71.46
2022-11-30T06:23:08.180Z,71.37
2022-11-30T06:24:08.202Z,71.46
2022-11-30T06:25:08.166Z,71.08
2022-11-30T06:26:08.169Z,71.66
2022-11-30T06:27:08.191Z,71.56
2022-11-30T06:28:08.185Z,71.27
2022-11-30T06:29:08.178Z,71.27
2022-11-30T06:30:08.158Z,71.08
2022-11-30T06:31:08.155Z,71.17
2022-11-30T06:32:08.144Z,71.08
2022-11-30T06:33:08.129Z,71.46
2022-11-30T06:34:08.142Z,70.98
2022-11-30T06:35:08.131Z,71.21
2022-11-30T06:36:08.135Z,70.83
2022-11-30T06:37:08.113Z,71.02
2022-11-30T06:38:08.125Z,70.73
2022-11-30T06:39:08.117Z,70.54
2022-11-30T06:40:08.495Z,70.54
2022-11-30T06:41:08.098Z,70.25
2022-11-30T06:42:08.115Z,70.35
2022-11-30T06:43:08.110Z,70.35
2022-11-30T06:44:08.101Z,70.25
2022-11-30T06:45:08.088Z,70.64
2022-11-30T06:46:08.143Z,70.35
2022-11-30T06:47:08.101Z,69.96
2022-11-30T06:48:08.089Z,69.71
2022-11-30T06:49:08.086Z,69.81
2022-11-30T06:50:08.076Z,69.52
2022-11-30T06:51:08.079Z,69.71
2022-11-30T06:52:08.071Z,69.81
2022-11-30T06:53:08.070Z,69.71
2022-11-30T06:54:08.055Z,69.71
2022-11-30T06:55:08.056Z,69.81
2022-11-30T06:56:10.554Z,69.90
2022-11-30T06:57:08.068Z,69.90
2022-11-30T06:58:08.071Z,69.52
2022-11-30T06:59:08.065Z,69.52
2022-11-30T07:00:08.323Z,69.52
2022-11-30T07:01:08.164Z,69.81
2022-11-30T07:02:11.812Z,69.81
2022-11-30T07:03:08.040Z,69.71
2022-11-30T07:04:08.054Z,69.62
2022-11-30T07:05:08.026Z,69.81
2022-11-30T07:06:08.034Z,69.71
2022-11-30T07:07:08.038Z,69.52
2022-11-30T07:08:08.029Z,69.90
2022-11-30T07:09:08.009Z,69.90
2022-11-30T07:10:08.005Z,70.03
2022-11-30T07:11:08.024Z,69.90
2022-11-30T07:12:08.017Z,69.90
2022-11-30T07:13:08.047Z,69.90
2022-11-30T07:14:08.007Z,69.71
2022-11-30T07:15:08.015Z,70.09
2022-11-30T07:16:08.076Z,70.09
2022-11-30T07:17:08.004Z,69.90
2022-11-30T07:18:07.980Z,69.74
2022-11-30T07:19:07.988Z,69.62
2022-11-30T07:20:07.983Z,69.84
2022-11-30T07:21:07.968Z,69.81
2022-11-30T07:22:07.971Z,69.33
2022-11-30T07:23:07.959Z,69.81
2022-11-30T07:24:07.997Z,69.81
2022-11-30T07:25:07.975Z,70.19
2022-11-30T07:26:07.979Z,70.19
2022-11-30T07:27:07.970Z,70.00
2022-11-30T07:28:07.953Z,70.57
2022-11-30T07:29:07.946Z,70.61
2022-11-30T07:30:07.942Z,70.42
2022-11-30T07:31:12.070Z,70.38
2022-11-30T07:32:07.993Z,70.19
2022-11-30T07:33:07.948Z,70.19
2022-11-30T07:34:07.946Z,70.57
2022-11-30T07:35:07.930Z,70.67
2022-11-30T07:36:07.928Z,70.57
2022-11-30T07:37:07.930Z,70.57
2022-11-30T07:38:09.871Z,70.48
2022-11-30T07:39:07.927Z,70.48
2022-11-30T07:40:08.249Z,70.86
2022-11-30T07:41:08.944Z,70.76
2022-11-30T07:42:07.914Z,70.67
2022-11-30T07:43:07.906Z,70.67
2022-11-30T07:44:07.900Z,70.57
2022-11-30T07:45:07.899Z,70.86
2022-11-30T07:46:07.962Z,70.96
2022-11-30T07:47:07.930Z,70.86
2022-11-30T07:48:07.890Z,71.05
2022-11-30T07:49:07.902Z,70.76
2022-11-30T07:50:07.899Z,70.96
2022-11-30T07:51:07.894Z,70.57
2022-11-30T07:52:07.883Z,70.86
2022-11-30T07:53:07.875Z,71.05
2022-11-30T07:54:07.885Z,70.96
2022-11-30T07:55:07.868Z,71.15
2022-11-30T07:56:07.870Z,70.86
2022-11-30T07:57:07.873Z,70.96
2022-11-30T07:58:09.172Z,70.96
2022-11-30T07:59:07.870Z,71.05
2022-11-30T08:00:07.869Z,71.53
2022-11-30T08:01:07.947Z,71.53
2022-11-30T08:02:07.956Z,71.53
2022-11-30T08:03:07.854Z,71.44
2022-11-30T08:04:07.885Z,71.34
2022-11-30T08:05:07.884Z,71.44
2022-11-30T08:06:07.838Z,71.15
2022-11-30T08:07:07.853Z,71.34
2022-11-30T08:08:07.841Z,71.25
2022-11-30T08:09:07.842Z,71.25
2022-11-30T08:10:07.830Z,71.15
2022-11-30T08:11:07.825Z,71.15
2022-11-30T08:12:07.829Z,71.25
2022-11-30T08:13:07.806Z,71.15
2022-11-30T08:14:07.806Z,71.25
2022-11-30T08:15:27.357Z,71.34
2022-11-30T08:16:07.813Z,71.25
2022-11-30T08:17:07.833Z,71.25
2022-11-30T08:18:07.793Z,71.15
2022-11-30T08:19:07.819Z,71.15
2022-11-30T08:20:07.793Z,71.15
2022-11-30T08:21:07.776Z,71.63
2022-11-30T08:22:07.782Z,71.72
2022-11-30T08:23:07.786Z,71.69
2022-11-30T08:24:07.857Z,71.72
2022-11-30T08:25:07.777Z,71.15
2022-11-30T08:26:07.770Z,70.96
2022-11-30T08:27:07.768Z,71.05
2022-11-30T08:28:07.771Z,71.69
2022-11-30T08:29:07.769Z,71.15
2022-11-30T08:30:07.758Z,71.15
2022-11-30T08:31:07.840Z,71.50
2022-11-30T08:32:07.753Z,71.53
2022-11-30T08:33:07.737Z,71.53
2022-11-30T08:34:07.743Z,71.63
2022-11-30T08:35:07.764Z,71.53
2022-11-30T08:36:07.756Z,71.50
2022-11-30T08:37:07.730Z,71.53
2022-11-30T08:38:07.738Z,71.25
2022-11-30T08:39:07.747Z,71.31
2022-11-30T08:40:07.738Z,71.44
2022-11-30T08:41:07.741Z,71.34
2022-11-30T08:42:07.728Z,71.25
2022-11-30T08:43:07.703Z,71.11
2022-11-30T08:44:07.722Z,71.11
2022-11-30T08:45:07.710Z,71.34
2022-11-30T08:46:27.430Z,71.21
2022-11-30T08:47:07.843Z,71.25
2022-11-30T08:48:07.704Z,71.34
2022-11-30T08:49:20.809Z,71.31
2022-11-30T08:50:07.686Z,71.98
2022-11-30T08:51:07.715Z,71.98
2022-11-30T08:52:16.892Z,71.78
2022-11-30T08:53:07.669Z,71.98
2022-11-30T08:54:07.677Z,71.78
2022-11-30T08:55:07.672Z,71.78
2022-11-30T08:56:07.674Z,71.88
2022-11-30T08:57:07.655Z,71.88
2022-11-30T08:58:07.656Z,71.69
2022-11-30T08:59:07.650Z,71.69
2022-11-30T09:00:07.672Z,71.59
2022-11-30T09:01:07.646Z,71.88
2022-11-30T09:02:07.733Z,71.69
2022-11-30T09:03:07.650Z,71.59
2022-11-30T09:04:07.639Z,71.59
2022-11-30T09:05:07.643Z,71.59
2022-11-30T09:06:07.652Z,71.69
2022-11-30T09:07:07.655Z,71.78
2022-11-30T09:08:07.675Z,71.78
2022-11-30T09:09:07.638Z,71.50
2022-11-30T09:10:07.635Z,71.78
2022-11-30T09:11:07.610Z,71.88
2022-11-30T09:12:07.632Z,71.59
2022-11-30T09:13:07.616Z,71.78
2022-11-30T09:14:07.618Z,71.78
2022-11-30T09:15:07.621Z,71.59
2022-11-30T09:16:07.705Z,71.78
2022-11-30T09:17:07.590Z,71.78
2022-11-30T09:18:07.591Z,71.78
2022-11-30T09:19:07.584Z,71.78
2022-11-30T09:20:07.589Z,71.69
2022-11-30T09:21:07.573Z,71.69
2022-11-30T09:22:07.586Z,71.69
2022-11-30T09:23:07.611Z,71.69
2022-11-30T09:24:07.570Z,71.78
2022-11-30T09:25:07.584Z,71.88
2022-11-30T09:26:07.563Z,71.88
2022-11-30T09:27:07.566Z,71.88
2022-11-30T09:28:12.132Z,71.59
2022-11-30T09:29:07.560Z,71.88
2022-11-30T09:30:07.564Z,72.07
2022-11-30T09:31:07.599Z,71.98
2022-11-30T09:32:07.555Z,71.59
2022-11-30T09:33:07.542Z,71.98
2022-11-30T09:34:07.545Z,72.17
2022-11-30T09:35:12.445Z,72.36
2022-11-30T09:36:07.554Z,72.07
2022-11-30T09:37:07.531Z,72.07
2022-11-30T09:38:07.531Z,72.17
2022-11-30T09:39:07.529Z,71.98
2022-11-30T09:40:07.514Z,71.98
2022-11-30T09:41:07.515Z,72.07
2022-11-30T09:42:07.502Z,71.98
2022-11-30T09:43:07.521Z,72.07
2022-11-30T09:44:07.502Z,72.07
2022-11-30T09:45:07.511Z,72.07
2022-11-30T09:46:07.519Z,72.07
2022-11-30T09:47:07.483Z,72.07
2022-11-30T09:48:07.498Z,72.07
2022-11-30T09:49:07.472Z,72.17
2022-11-30T09:50:07.499Z,71.98
2022-11-30T09:51:07.472Z,71.88
2022-11-30T09:52:07.484Z,71.98
2022-11-30T09:53:07.462Z,72.17
2022-11-30T09:54:07.474Z,72.07
2022-11-30T09:55:07.493Z,71.88
2022-11-30T09:56:07.461Z,71.88
2022-11-30T09:57:07.449Z,72.27
2022-11-30T09:58:07.462Z,72.07
2022-11-30T09:59:07.458Z,71.88
2022-11-30T10:00:07.460Z,71.98
2022-11-30T10:01:07.691Z,71.88
2022-11-30T10:02:07.534Z,71.69
2022-11-30T10:03:07.591Z,71.69
2022-11-30T10:04:07.440Z,71.69
2022-11-30T10:05:07.430Z,71.69
2022-11-30T10:06:07.416Z,71.98
2022-11-30T10:07:07.429Z,71.98
2022-11-30T10:08:07.488Z,72.07
2022-11-30T10:09:07.407Z,71.69
2022-11-30T10:10:34.909Z,71.69
2022-11-30T10:11:07.439Z,71.69
2022-11-30T10:12:07.407Z,71.69
2022-11-30T10:13:07.419Z,71.69
2022-11-30T10:14:07.399Z,71.69
2022-11-30T10:15:07.397Z,71.78
2022-11-30T10:16:07.468Z,71.78
2022-11-30T10:17:07.392Z,71.69
2022-11-30T10:18:07.392Z,71.78
2022-11-30T10:19:07.402Z,71.78
2022-11-30T10:20:07.377Z,71.69
2022-11-30T10:21:07.361Z,71.78
2022-11-30T10:22:07.363Z,71.88
2022-11-30T10:23:07.363Z,71.69
2022-11-30T10:24:07.350Z,71.88
2022-11-30T10:25:11.846Z,71.69
2022-11-30T10:26:07.359Z,71.69
2022-11-30T10:27:07.375Z,72.07
2022-11-30T10:28:24.243Z,71.98
2022-11-30T10:29:07.352Z,71.69
2022-11-30T10:30:07.341Z,71.69
2022-11-30T10:31:07.410Z,72.07
2022-11-30T10:32:07.334Z,71.69
2022-11-30T10:33:07.339Z,71.69
2022-11-30T10:34:07.331Z,71.88
2022-11-30T10:35:07.326Z,71.78
2022-11-30T10:36:07.319Z,71.69
2022-11-30T10:37:07.335Z,71.69
2022-11-30T10:38:07.300Z,71.78
2022-11-30T10:39:11.813Z,71.88
2022-11-30T10:40:07.292Z,71.88
2022-11-30T10:41:07.289Z,71.69
2022-11-30T10:42:07.289Z,72.07
2022-11-30T10:43:07.320Z,72.17
2022-11-30T10:44:07.279Z,71.88
2022-11-30T10:45:07.290Z,71.88
2022-11-30T10:46:09.304Z,71.88
2022-11-30T10:47:07.298Z,71.88
2022-11-30T10:48:07.263Z,71.88
2022-11-30T10:49:07.265Z,71.69
2022-11-30T10:50:07.272Z,72.17
2022-11-30T10:51:07.253Z,71.88
2022-11-30T10:52:07.260Z,71.88
2022-11-30T10:53:07.246Z,71.88
2022-11-30T10:54:07.271Z,71.78
2022-11-30T10:55:07.254Z,72.17
2022-11-30T10:56:07.239Z,71.69
2022-11-30T10:57:07.239Z,71.69
2022-11-30T10:58:07.228Z,71.98
2022-11-30T10:59:07.266Z,71.75
2022-11-30T11:00:07.217Z,72.45
2022-11-30T11:01:07.312Z,71.78
2022-11-30T11:02:07.278Z,72.55
2022-11-30T11:03:07.291Z,72.17
2022-11-30T11:04:07.275Z,72.45
2022-11-30T11:05:07.203Z,71.84
2022-11-30T11:06:07.194Z,71.78
2022-11-30T11:07:07.291Z,72.13
2022-11-30T11:08:07.703Z,71.66
2022-11-30T11:09:07.194Z,72.13
2022-11-30T11:10:07.192Z,71.66
2022-11-30T11:11:07.195Z,71.66
2022-11-30T11:12:07.175Z,71.78
2022-11-30T11:13:07.182Z,71.78
2022-11-30T11:14:07.169Z,71.75
2022-11-30T11:15:07.188Z,71.75
2022-11-30T11:16:07.258Z,71.84
2022-11-30T11:17:07.164Z,71.78
2022-11-30T11:18:07.154Z,71.94
2022-11-30T11:19:07.153Z,72.45
2022-11-30T11:20:07.144Z,72.13
2022-11-30T11:21:07.406Z,71.94
2022-11-30T11:22:07.135Z,71.84
2022-11-30T11:23:07.158Z,72.13
2022-11-30T11:24:07.144Z,72.13
2022-11-30T11:25:07.145Z,71.94
2022-11-30T11:26:07.138Z,71.94
2022-11-30T11:27:07.126Z,72.13
2022-11-30T11:28:07.118Z,72.52
2022-11-30T11:29:07.118Z,71.75
2022-11-30T11:30:07.106Z,72.52
2022-11-30T11:31:07.139Z,71.75
2022-11-30T11:32:07.116Z,72.42
2022-11-30T11:33:07.099Z,71.75
2022-11-30T11:34:07.090Z,71.75
2022-11-30T11:35:07.105Z,72.42
2022-11-30T11:36:07.098Z,72.32
2022-11-30T11:37:07.101Z,72.42
2022-11-30T11:38:07.095Z,71.75
2022-11-30T11:39:07.097Z,71.94
2022-11-30T11:40:07.092Z,72.52
2022-11-30T11:41:07.082Z,72.03
2022-11-30T11:42:07.081Z,72.32
2022-11-30T11:43:07.077Z,72.42
2022-11-30T11:44:07.072Z,71.94
2022-11-30T11:45:07.059Z,71.75
2022-11-30T11:46:07.086Z,72.42
2022-11-30T11:47:07.084Z,72.42
2022-11-30T11:48:07.041Z,71.75
2022-11-30T11:49:07.039Z,72.32
2022-11-30T11:50:07.049Z,72.32
2022-11-30T11:51:08.297Z,72.32
2022-11-30T11:52:07.040Z,72.42
2022-11-30T11:53:07.066Z,72.32
2022-11-30T11:54:07.143Z,72.32
2022-11-30T11:55:07.017Z,72.42
2022-11-30T11:56:07.028Z,72.42
2022-11-30T11:57:07.035Z,72.42
2022-11-30T11:58:07.016Z,72.52
2022-11-30T11:59:07.003Z,72.42
2022-11-30T12:00:15.645Z,72.42
2022-11-30T12:01:38.257Z,72.52
2022-11-30T12:02:07.002Z,71.84
2022-11-30T12:03:07.080Z,71.75
2022-11-30T12:04:07.041Z,71.94
2022-11-30T12:05:06.993Z,72.42
2022-11-30T12:06:06.987Z,71.75
2022-11-30T12:07:06.986Z,72.42
2022-11-30T12:08:07.023Z,72.32
2022-11-30T12:09:06.965Z,71.75
2022-11-30T12:10:21.812Z,72.42
2022-11-30T12:11:06.977Z,72.52
2022-11-30T12:12:06.950Z,72.52
2022-11-30T12:13:06.950Z,71.94
2022-11-30T12:14:06.952Z,72.13
2022-11-30T12:15:06.956Z,71.75
2022-11-30T12:16:06.964Z,72.42
2022-11-30T12:17:06.948Z,71.66
2022-11-30T12:18:13.750Z,71.84
2022-11-30T12:19:06.958Z,71.66
2022-11-30T12:20:06.935Z,71.75
2022-11-30T12:21:06.924Z,71.84
2022-11-30T12:22:06.912Z,71.75
2022-11-30T12:23:06.915Z,71.75
2022-11-30T12:24:06.918Z,71.84
2022-11-30T12:25:06.918Z,71.75
2022-11-30T12:26:06.915Z,71.66
2022-11-30T12:27:06.896Z,71.84
2022-11-30T12:28:06.901Z,71.84
2022-11-30T12:29:06.901Z,71.75
2022-11-30T12:30:06.898Z,71.75
2022-11-30T12:31:06.932Z,71.66
2022-11-30T12:32:06.895Z,71.56
2022-11-30T12:33:06.886Z,71.84
2022-11-30T12:34:06.876Z,72.03
2022-11-30T12:35:06.905Z,71.66
2022-11-30T12:36:06.872Z,71.84
2022-11-30T12:37:06.885Z,71.75
2022-11-30T12:38:06.850Z,71.66
2022-11-30T12:39:06.855Z,71.84
2022-11-30T12:40:06.847Z,71.84
2022-11-30T12:41:06.856Z,71.66
2022-11-30T12:42:06.849Z,71.84
2022-11-30T12:43:06.837Z,71.66
2022-11-30T12:44:06.834Z,71.66
2022-11-30T12:45:06.850Z,72.03
2022-11-30T12:46:06.885Z,71.66
2022-11-30T12:47:06.837Z,71.75
2022-11-30T12:48:06.825Z,71.75
2022-11-30T12:49:06.933Z,71.66
2022-11-30T12:50:06.823Z,71.66
2022-11-30T12:51:06.824Z,71.66
2022-11-30T12:52:06.814Z,71.75